Time;durP1;ratioP1;P1;durP2;ratioP2;P2;SDS_P1;SDS_P2;PMS_P1;PMS_P2;Temp;Humidity;BMP_temperature;BMP_pressure;BME280_temperature;BME280_humidity;BME280_pressure;Samples;Min_cycle;Max_cycle;Signal;HPM_P1;HPM_P2
2022/08/11 00:01:08;;;;;;;3.63;2.00;;;;;;;19.43;nan;100682.84;4988299;28;20466;-71
2022/08/11 00:03:34;;;;;;;5.43;2.15;;;;;;;19.32;nan;100618.00;4996149;28;20030;-68
2022/08/11 00:06:00;;;;;;;2.45;1.90;;;;;;;;;;4987968;28;20124;-68
2022/08/11 00:08:28;;;;;;;2.45;1.90;;;;;;;19.22;nan;100644.78;4992667;28;20537;-67
2022/08/11 00:10:57;;;;;;;4.45;2.03;;;;;;;19.34;nan;100663.94;4991175;28;20166;-68
2022/08/11 00:13:31;;;;;;;5.53;1.88;;;;;;;19.25;nan;100655.72;4990765;28;20120;-68
2022/08/11 00:15:57;;;;;;;5.93;2.60;;;;;;;19.14;nan;100680.88;4978174;28;20133;-68
2022/08/11 00:18:23;;;;;;;2.10;1.88;;;;;;;;;;4994239;28;20037;-67
2022/08/11 00:20:49;;;;;;;2.60;2.13;;;;;;;19.01;nan;100630.75;4993658;28;20034;-67
2022/08/11 00:23:17;;;;;;;3.35;2.28;;;;;;;19.00;nan;100605.16;4995387;28;20053;-67
2022/08/11 00:25:44;;;;;;;7.05;2.90;;;;;;;;;;4986016;28;20038;-67
2022/08/11 00:28:23;;;;;;;3.65;3.08;;;;;;;18.92;nan;100671.38;4987666;28;20061;-68
2022/08/11 00:30:50;;;;;;;7.47;3.20;;;;;;;18.87;nan;100666.06;4987525;28;20056;-68
2022/08/11 00:33:17;;;;;;;7.65;3.17;;;;;;;18.85;nan;100678.09;4983448;28;20085;-67
2022/08/11 00:35:44;;;;;;;4.68;2.83;;;;;;;18.77;nan;100671.44;4987563;28;20030;-68
2022/08/11 00:38:11;;;;;;;6.28;3.30;;;;;;;18.74;nan;100722.63;4977301;28;20050;-68
2022/08/11 00:41:07;;;;;;;5.28;3.50;;;;;;;18.70;nan;100668.25;4977479;28;20042;-69
2022/08/11 00:43:45;;;;;;;7.95;5.15;;;;;;;18.59;nan;100656.78;4966898;28;20129;-69
2022/08/11 00:46:25;;;;;;;14.88;6.97;;;;;;;18.59;nan;100672.00;4991691;28;20128;-69
2022/08/11 00:49:11;;;;;;;18.90;9.32;;;;;;;18.58;nan;100665.06;4988432;28;20034;-68
2022/08/11 00:52:07;;;;;;;19.70;10.23;;;;;;;18.54;nan;100664.81;4978434;28;20038;-69
2022/08/11 00:54:46;;;;;;;18.67;9.43;;;;;;;;;;4993247;28;20500;-69
2022/08/11 00:57:56;;;;;;;18.80;8.80;;;;;;;18.40;nan;100653.13;4993453;28;20050;-69
2022/08/11 01:00:23;;;;;;;17.23;9.75;;;;;;;;;;4986980;28;20042;-68
2022/08/11 01:03:25;;;;;;;11.57;7.20;;;;;;;18.40;nan;100671.78;4987639;28;20034;-68
2022/08/11 01:06:16;;;;;;;15.70;6.20;;;;;;;18.37;nan;100680.34;4973067;28;20034;-68
2022/08/11 01:09:19;;;;;;;7.90;4.00;;;;;;;18.25;nan;100661.97;4985238;28;20046;-68
2022/08/11 01:11:54;;;;;;;8.15;3.22;;;;;;;18.13;nan;100630.25;4989905;28;20096;-68
2022/08/11 01:14:22;;;;;;;4.90;2.70;;;;;;;18.13;nan;100659.56;4989617;28;20038;-68
2022/08/11 01:16:56;;;;;;;7.38;2.72;;;;;;;18.09;nan;100676.38;4989966;28;20650;-67
2022/08/11 01:19:40;;;;;;;2.88;2.50;;;;;;;18.02;nan;100673.97;4980742;28;20049;-68
2022/08/11 01:22:21;;;;;;;2.63;2.40;;;;;;;17.98;nan;100678.22;4989958;28;20038;-68
2022/08/11 01:25:25;;;;;;;2.38;2.00;;;;;;;17.86;nan;100651.84;4983950;28;20493;-67
2022/08/11 01:28:05;;;;;;;2.63;2.20;;;;;;;17.82;nan;100728.06;4989037;28;20138;-68
2022/08/11 01:30:54;;;;;;;2.60;2.03;;;;;;;17.83;nan;100679.03;4987374;28;20045;-68
2022/08/11 01:33:34;;;;;;;2.53;2.10;;;;;;;17.85;nan;100668.91;4987004;28;20109;-68
2022/08/11 01:36:21;;;;;;;2.42;1.90;;;;;;;17.81;nan;100670.50;4988933;28;20056;-68
2022/08/11 01:39:08;;;;;;;5.93;1.90;;;;;;;17.80;nan;100672.38;4989435;28;20038;-69
2022/08/11 01:45:00;;;;;;;4.15;2.05;;;;;;;17.65;nan;100654.50;4898768;29;20080;-68
2022/08/11 01:47:50;;;;;;;3.63;2.28;;;;;;;17.72;nan;100642.75;4888007;29;20048;-67
2022/08/11 01:50:34;;;;;;;3.97;2.30;;;;;;;17.69;nan;100633.44;4893381;29;20039;-67
2022/08/11 01:53:23;;;;;;;3.05;2.50;;;;;;;17.61;nan;100664.06;4906699;29;20043;-67
2022/08/11 01:56:23;;;;;;;4.10;2.38;;;;;;;17.60;nan;100651.84;4895882;29;20036;-68
2022/08/11 01:58:57;;;;;;;6.57;2.38;;;;;;;17.56;nan;100658.75;4900798;29;20181;-68
2022/08/11 02:01:49;;;;;;;4.75;2.40;;;;;;;17.52;nan;100657.66;4901283;29;20087;-69
2022/08/11 02:04:17;;;;;;;2.90;2.60;;;;;;;17.48;nan;100661.13;4899115;29;20139;-67
2022/08/11 02:06:54;;;;;;;5.32;2.92;;;;;;;;;;4908256;29;20042;-68
2022/08/11 02:09:44;;;;;;;7.75;3.58;;;;;;;17.38;nan;100656.59;4899454;29;20506;-68
2022/08/11 02:12:25;;;;;;;4.32;2.92;;;;;;;17.20;nan;100645.38;4901466;29;20052;-68
2022/08/11 02:14:59;;;;;;;5.68;3.20;;;;;;;17.30;nan;100651.78;4895020;29;20128;-69
2022/08/11 02:17:34;;;;;;;5.53;3.17;;;;;;;;;;4903379;29;20051;-68
2022/08/11 02:26:13;;;;;;;5.68;3.00;;;;;;;;;;4984253;28;20137;-68
2022/08/11 02:28:41;;;;;;;4.72;3.10;;;;;;;;;;4986960;28;20042;-68
2022/08/11 02:34:18;;;;;;;3.72;2.88;;;;;;;17.01;nan;100668.22;4987376;28;20157;-69
2022/08/11 02:37:02;;;;;;;4.78;2.83;;;;;;;;;;4973109;28;20121;-67
2022/08/11 02:39:30;;;;;;;5.88;3.17;;;;;;;;;;4990309;28;20121;-66
2022/08/11 02:42:23;;;;;;;9.07;3.38;;;;;;;;;;4987700;28;20030;-69
2022/08/11 02:45:13;;;;;;;5.90;2.97;;;;;;;;;;4982032;28;20053;-67
2022/08/11 02:50:51;;;;;;;5.10;2.90;;;;;;;;;;4984665;28;20042;-67
2022/08/11 02:53:25;;;;;;;6.00;2.92;;;;;;;;;;4984063;28;20093;-68
2022/08/11 02:55:53;;;;;;;3.97;2.92;;;;;;;;;;4974540;28;20473;-68
2022/08/11 02:58:30;;;;;;;4.13;2.90;;;;;;;;;;4988298;28;20051;-68
2022/08/11 03:01:02;;;;;;;7.70;2.88;;;;;;;;;;4985392;28;20070;-68
2022/08/11 03:03:43;;;;;;;7.65;3.28;;;;;;;;;;4986910;28;20064;-68
2022/08/11 03:06:22;;;;;;;5.53;3.20;;;;;;;;;;4983964;28;20168;-69
2022/08/11 03:08:57;;;;;;;3.80;3.08;;;;;;;;;;4989469;28;20041;-68
2022/08/11 03:17:35;;;;;;;3.88;2.85;;;;;;;;;;4986894;28;20455;-67
2022/08/11 03:20:07;;;;;;;7.45;3.42;;;;;;;;;;4984829;28;20038;-68
2022/08/11 03:22:37;;;;;;;11.82;4.00;;;;;;;;;;4988937;28;20046;-68
2022/08/11 03:25:11;;;;;;;5.38;3.10;;;;;;;;;;4986168;28;20504;-67
2022/08/11 03:27:45;;;;;;;9.73;3.72;;;;;;;;;;4987373;28;20051;-67
2022/08/11 03:30:25;;;;;;;5.00;3.22;;;;;;;16.31;nan;100697.59;4982462;28;20034;-70
2022/08/11 03:36:04;;;;;;;5.25;3.55;;;;;;;;;;4989438;28;20468;-70
2022/08/11 03:38:42;;;;;;;6.15;3.30;;;;;;;;;;4984253;28;20043;-71
2022/08/11 03:44:09;;;;;;;7.50;3.42;;;;;;;;;;4985028;28;20046;-68
2022/08/11 03:46:50;;;;;;;9.73;3.50;;;;;;;;;;4986071;28;20133;-69
2022/08/11 03:49:34;;;;;;;10.43;3.40;;;;;;;;;;4988408;28;20480;-69
2022/08/11 03:52:06;;;;;;;10.23;3.45;;;;;;;;;;4983842;28;20046;-69
2022/08/11 03:54:50;;;;;;;6.53;3.03;;;;;;;;;;4988754;28;20062;-69
2022/08/11 03:57:35;;;;;;;12.00;3.58;;;;;;;;;;4989122;28;20476;-70
2022/08/11 04:00:09;;;;;;;7.18;3.45;;;;;;;;;;4986081;28;20066;-72
2022/08/11 04:02:53;;;;;;;9.52;3.90;;;;;;;;;;4987838;28;20046;-71
2022/08/11 04:05:19;;;;;;;4.90;3.10;;;;;;;;;;4986034;28;20084;-72
2022/08/11 04:08:13;;;;;;;8.70;3.20;;;;;;;16.14;nan;100736.81;4986491;28;20117;-72
2022/08/11 04:10:40;;;;;;;9.07;3.33;;;;;;;;;;4986184;28;20280;-71
2022/08/11 04:13:28;;;;;;;9.98;3.53;;;;;;;;;;4986325;28;20045;-70
2022/08/11 04:16:14;;;;;;;10.95;3.65;;;;;;;;;;4982854;28;20053;-70
2022/08/11 04:18:48;;;;;;;16.23;3.53;;;;;;;;;;4983169;28;20056;-71
2022/08/11 04:21:32;;;;;;;8.77;3.25;;;;;;;;;;4972667;28;20043;-71
2022/08/11 04:24:23;;;;;;;6.55;3.08;;;;;;;;;;4983175;28;20117;-72
2022/08/11 04:27:07;;;;;;;10.52;3.40;;;;;;;;;;4977320;28;20058;-71
2022/08/11 04:29:44;;;;;;;10.60;3.13;;;;;;;;;;4987370;28;20477;-72
2022/08/11 04:32:27;;;;;;;11.82;3.30;;;;;;;;;;4983772;28;20042;-71
2022/08/11 04:34:52;;;;;;;11.48;4.78;;;;;;;;;;4985016;28;20045;-70
2022/08/11 04:37:34;;;;;;;10.67;3.53;;;;;;;;;;4990162;28;20038;-73
2022/08/11 04:40:05;;;;;;;12.07;3.70;;;;;;;;;;4992188;28;20275;-71
2022/08/11 04:45:27;;;;;;;6.97;2.90;;;;;;;;;;4988644;28;20034;-71
2022/08/11 05:03:07;;;;;;;10.20;2.88;;;;;;;;;;4922501;29;20040;-71
2022/08/11 05:05:51;;;;;;;8.40;2.90;;;;;;;;;;4925230;29;20602;-71
2022/08/11 05:08:19;;;;;;;6.65;3.20;;;;;;;;;;4909442;29;20510;-70
2022/08/11 05:10:47;;;;;;;9.63;2.90;;;;;;;;;;4907266;29;20552;-70
2022/08/11 05:37:11;;;;;;;4.50;2.40;;;;;;;19.14;nan;100691.56;4989083;28;20039;-77
2022/08/11 05:56:19;;;;;;;3.85;2.30;;;;;;;20.00;nan;100664.56;4988716;28;20066;-74
2022/08/11 05:58:51;;;;;;;4.28;2.28;;;;;;;;;;4975464;28;20030;-76
2022/08/11 06:01:24;;;;;;;6.72;2.17;;;;;;;20.24;nan;100670.72;4975513;28;20081;-76
2022/08/11 06:04:15;;;;;;;7.47;2.08;;;;;;;20.46;nan;100686.28;4990368;28;20053;-75
2022/08/11 06:06:51;;;;;;;5.88;2.30;;;;;;;20.54;nan;100684.84;4990062;28;20030;-73
2022/08/11 06:09:22;;;;;;;6.18;2.28;;;;;;;;;;4989489;28;20066;-75
2022/08/11 06:11:48;;;;;;;3.47;1.92;;;;;;;20.59;nan;100685.66;4984221;28;20142;-75
2022/08/11 06:14:14;;;;;;;4.13;1.98;;;;;;;20.69;nan;100681.25;4992508;28;20037;-74
2022/08/11 06:16:41;;;;;;;8.88;1.90;;;;;;;20.77;nan;100630.56;4990516;28;20038;-75
2022/08/11 06:19:08;;;;;;;2.88;2.13;;;;;;;20.87;nan;100629.63;4987077;28;20061;-74
2022/08/11 06:21:35;;;;;;;2.55;2.08;;;;;;;20.93;nan;100738.25;4987579;28;20045;-75
2022/08/11 06:24:04;;;;;;;9.05;3.22;;;;;;;20.95;nan;100622.81;4985125;28;20075;-75
2022/08/11 06:26:30;;;;;;;4.47;1.95;;;;;;;21.05;nan;100678.94;4972154;28;20499;-77
2022/08/11 06:28:58;;;;;;;3.35;2.15;;;;;;;21.14;nan;100676.38;4990054;28;20323;-77
2022/08/11 06:31:24;;;;;;;4.13;2.15;;;;;;;21.14;nan;100682.56;4988709;28;20330;-74
2022/08/11 06:33:49;;;;;;;3.95;1.55;;;;;;;21.36;nan;100707.97;4986084;28;20112;-74
2022/08/11 06:36:35;;;;;;;4.68;1.90;;;;;;;21.48;nan;100692.28;4987419;28;20099;-74
2022/08/11 06:39:00;;;;;;;5.28;2.08;;;;;;;21.55;nan;100691.91;4951670;28;20152;-75
2022/08/11 06:41:39;;;;;;;4.75;2.50;;;;;;;21.62;nan;100697.69;4989310;28;20139;-74
2022/08/11 06:44:11;;;;;;;4.57;2.58;;;;;;;21.67;nan;100681.56;4991705;28;20038;-73
2022/08/11 06:47:10;;;;;;;7.10;2.25;;;;;;;21.84;nan;100694.41;4986087;28;20165;-76
2022/08/11 06:52:36;;;;;;;2.15;1.50;;;;;;;22.03;nan;100678.28;4988732;28;20034;-75
2022/08/11 07:01:11;;;;;;;3.88;1.77;;;;;;;22.27;nan;100692.34;4930926;29;20410;-74
2022/08/11 07:03:43;;;;;;;1.67;1.58;;;;;;;22.23;nan;100679.84;4930990;29;20483;-74
2022/08/11 07:06:32;;;;;;;3.80;1.40;;;;;;;22.34;nan;100685.78;4930891;29;20102;-73
2022/08/11 07:28:55;;;;;;;4.47;1.60;;;;;;;22.90;nan;100682.03;4931081;29;20044;-75
2022/08/11 07:31:30;;;;;;;4.35;1.30;;;;;;;23.07;nan;100676.84;4915864;29;20035;-73
2022/08/11 07:34:17;;;;;;;2.95;1.40;;;;;;;23.11;nan;100679.72;4932027;29;20036;-74
2022/08/11 07:36:50;;;;;;;2.90;1.40;;;;;;;23.08;nan;100664.19;4931799;29;20441;-74
2022/08/11 07:39:23;;;;;;;5.35;1.58;;;;;;;;;;4985837;28;20049;-74
2022/08/11 07:41:49;;;;;;;2.30;1.23;;;;;;;;;;4987265;28;20041;-74
2022/08/11 07:44:16;;;;;;;6.95;1.25;;;;;;;23.42;nan;100663.72;4988035;28;20034;-73
2022/08/11 07:52:25;;;;;;;1.70;1.27;;;;;;;23.42;nan;100697.88;4987100;28;20097;-73
2022/08/11 07:54:52;;;;;;;3.78;1.50;;;;;;;23.53;nan;100677.69;4978875;28;20027;-72
2022/08/11 08:19:16;;;;;;;3.08;1.60;;;;;;;24.09;nan;100660.19;4986686;28;20034;-74
2022/08/11 08:21:44;;;;;;;3.55;1.55;;;;;;;24.16;nan;100718.97;4974117;28;20027;-72
2022/08/11 08:24:10;;;;;;;3.70;1.75;;;;;;;24.15;nan;100650.09;4993153;28;20062;-73
2022/08/11 08:32:09;;;;;;;3.08;1.25;;;;;;;24.34;nan;100656.00;4993617;28;20030;-75
2022/08/11 08:34:36;;;;;;;;;;;;;;;24.38;nan;100662.38;4991857;28;20077;-73
2022/08/11 08:37:02;;;;;;;2.60;1.50;;;;;;;24.41;nan;100658.25;4992693;28;19953;-74
2022/08/11 08:39:28;;;;;;;1.50;1.40;;;;;;;24.49;nan;100608.28;4991148;28;20035;-73
2022/08/11 08:41:55;;;;;;;3.83;1.52;;;;;;;;;;4988289;28;20065;-74
2022/08/11 08:44:23;;;;;;;2.40;1.30;;;;;;;24.57;nan;100621.75;4976418;28;20046;-74
2022/08/11 08:46:55;;;;;;;4.65;1.70;;;;;;;24.51;nan;100668.78;4991327;28;20477;-73
2022/08/11 08:49:33;;;;;;;3.30;1.45;;;;;;;24.53;nan;100668.47;4992689;28;20035;-72
2022/08/11 08:52:03;;;;;;;4.32;1.30;;;;;;;24.58;nan;100665.63;4973840;28;20030;-74
2022/08/11 08:54:36;;;;;;;3.60;1.50;;;;;;;24.66;nan;100675.63;4988829;28;20037;-74
2022/08/11 08:57:04;;;;;;;2.13;1.40;;;;;;;24.75;nan;100644.13;4991195;28;20552;-73
2022/08/11 08:59:35;;;;;;;1.88;1.50;;;;;;;24.79;nan;100671.22;4993311;28;20072;-72
2022/08/11 09:02:04;;;;;;;1.73;1.63;;;;;;;24.75;nan;100659.50;4990632;28;20626;-72
2022/08/11 09:04:30;;;;;;;4.93;1.70;;;;;;;;;;4974167;28;20393;-75
2022/08/11 09:07:02;;;;;;;2.25;1.40;;;;;;;24.73;nan;100659.78;4990419;28;20034;-75
2022/08/11 09:09:28;;;;;;;2.20;1.25;;;;;;;24.76;nan;100639.53;4989967;28;20073;-72
2022/08/11 09:11:55;;;;;;;1.55;1.30;;;;;;;24.88;nan;100642.41;4992001;28;20389;-72
2022/08/11 09:17:19;;;;;;;2.75;1.40;;;;;;;;;;4990575;28;20038;-72
2022/08/11 09:19:46;;;;;;;2.80;1.60;;;;;;;25.01;nan;100629.91;4986778;28;20453;-73
2022/08/11 09:27:52;;;;;;;3.75;1.42;;;;;;;25.24;nan;100682.56;4987197;28;20038;-74
2022/08/11 09:30:19;;;;;;;2.35;1.30;;;;;;;25.27;nan;100631.84;4967469;28;20039;-73
2022/08/11 09:32:46;;;;;;;3.50;1.83;;;;;;;25.15;nan;100618.97;4987598;28;20034;-74
2022/08/11 09:35:13;;;;;;;2.30;1.60;;;;;;;25.18;nan;100651.47;4988802;28;20096;-73
2022/08/11 09:40:30;;;;;;;1.60;1.50;;;;;;;25.19;nan;100628.03;4987098;28;20396;-72
2022/08/11 09:45:52;;;;;;;3.70;1.77;;;;;;;25.34;nan;100677.97;4989506;28;20031;-72
2022/08/11 09:48:26;;;;;;;3.08;1.23;;;;;;;25.36;nan;100630.72;4976719;28;20031;-73
2022/08/11 09:50:57;;;;;;;1.98;1.67;;;;;;;25.31;nan;100675.88;4989364;28;20121;-72
2022/08/11 09:53:27;;;;;;;2.70;1.55;;;;;;;25.22;nan;100625.47;4984150;28;20523;-71
2022/08/11 09:55:53;;;;;;;1.70;1.60;;;;;;;25.16;nan;100612.44;4984315;28;20501;-72
2022/08/11 09:58:21;;;;;;;4.13;1.50;;;;;;;25.31;nan;100620.09;4967968;28;20508;-71
2022/08/11 10:00:49;;;;;;;1.92;1.80;;;;;;;25.41;nan;100621.66;4992565;28;20492;-75
2022/08/11 10:03:22;;;;;;;2.53;1.50;;;;;;;25.44;nan;100618.31;4989800;28;20088;-73
2022/08/11 10:08:41;;;;;;;3.33;1.55;;;;;;;25.39;nan;100624.69;4988472;28;20027;-76
2022/08/11 10:11:17;;;;;;;2.92;1.60;;;;;;;25.53;nan;100632.59;4992345;28;20034;-74
2022/08/11 10:16:35;;;;;;;1.90;1.60;;;;;;;25.84;nan;100618.09;4992005;28;20038;-75
2022/08/11 10:19:02;;;;;;;;;;;;;;;25.90;nan;100614.13;4987580;28;20069;-69
2022/08/11 10:26:48;;;;;;;3.80;1.58;;;;;;;25.96;nan;100625.53;4991332;28;19913;-72
2022/08/11 10:27:15;;;;;;;1.67;1.40;;;;;;;25.93;nan;100586.50;4987170;28;20054;-74
2022/08/11 10:35:14;;;;;;;7.70;1.80;;;;;;;25.86;nan;100595.09;4986949;28;20039;-75
2022/08/11 10:37:42;;;;;;;2.83;1.73;;;;;;;25.80;nan;100600.94;4987650;28;20033;-74
2022/08/11 10:40:10;;;;;;;2.65;1.50;;;;;;;25.89;nan;100659.19;4986647;28;20033;-73
2022/08/11 10:48:09;;;;;;;7.07;1.50;;;;;;;26.17;nan;100591.31;4992015;28;20031;-74
2022/08/11 10:58:51;;;;;;;3.25;1.48;;;;;;;26.37;nan;100589.75;4985449;28;20046;-74
2022/08/11 11:01:25;;;;;;;2.13;1.50;;;;;;;26.39;nan;100547.03;4990457;28;20041;-75
2022/08/11 11:03:57;;;;;;;2.97;1.40;;;;;;;26.51;nan;100567.91;4987457;28;20030;-74
2022/08/11 11:06:29;;;;;;;2.70;1.45;;;;;;;26.58;nan;100573.63;4985769;28;20027;-74
2022/08/11 11:09:10;;;;;;;1.42;1.33;;;;;;;26.55;nan;100566.16;4993203;28;20456;-74
2022/08/11 11:19:57;;;;;;;3.45;1.45;;;;;;;26.84;nan;100540.19;4985257;28;20038;-74
2022/08/11 11:22:39;;;;;;;2.60;1.58;;;;;;;26.93;nan;100559.81;4986636;28;20500;-74
2022/08/11 11:25:16;;;;;;;2.65;1.48;;;;;;;26.80;nan;100555.50;4987822;28;20037;-76
2022/08/11 11:28:08;;;;;;;7.22;2.15;;;;;;;26.79;nan;100549.28;4989152;28;20057;-76
2022/08/11 11:30:54;;;;;;;3.28;2.00;;;;;;;26.74;nan;100600.81;4976089;28;20112;-72
2022/08/11 11:33:35;;;;;;;2.88;1.60;;;;;;;26.56;nan;100529.16;4991001;28;20046;-73
2022/08/11 11:36:35;;;;;;;3.30;1.42;;;;;;;26.74;nan;100560.31;4990674;28;20034;-71
2022/08/11 11:39:01;;;;;;;2.72;1.63;;;;;;;26.80;nan;100553.59;4992239;28;20045;-76
2022/08/11 11:41:27;;;;;;;3.28;1.83;;;;;;;26.82;nan;100586.47;4975004;28;20404;-73
2022/08/11 11:43:55;;;;;;;2.08;1.40;;;;;;;27.01;nan;100550.88;4974307;28;20030;-76
2022/08/11 11:46:25;;;;;;;3.70;1.53;;;;;;;27.10;nan;100543.44;4991638;28;20080;-74
2022/08/11 11:48:52;;;;;;;1.88;1.52;;;;;;;27.15;nan;100504.59;4990247;28;20268;-75
2022/08/11 11:51:20;;;;;;;2.30;1.50;;;;;;;27.24;nan;100537.78;4973196;28;20035;-74
2022/08/11 11:53:47;;;;;;;1.30;1.20;;;;;;;27.29;nan;100551.06;4990688;28;20031;-76
2022/08/11 11:56:13;;;;;;;4.78;1.60;;;;;;;27.45;nan;100531.53;4988581;28;20069;-77
2022/08/11 12:01:25;;;;;;;2.97;1.50;;;;;;;27.65;nan;100494.69;4988864;28;20038;-74
2022/08/11 12:03:53;;;;;;;3.90;1.40;;;;;;;27.70;nan;100494.44;4994456;28;20030;-75
2022/08/11 12:06:21;;;;;;;2.40;1.45;;;;;;;27.72;nan;100516.56;4988374;28;20057;-75
2022/08/11 12:08:49;;;;;;;2.83;1.40;;;;;;;27.69;nan;100520.72;4974169;28;20053;-75
2022/08/11 12:14:04;;;;;;;2.53;1.40;;;;;;;27.34;nan;100518.44;4985653;28;20122;-75
2022/08/11 12:16:32;;;;;;;5.10;1.58;;;;;;;27.09;nan;100505.94;4989637;28;20098;-75
2022/08/11 12:18:59;;;;;;;2.15;1.42;;;;;;;27.22;nan;100515.69;4989610;28;20035;-75
2022/08/11 12:21:26;;;;;;;4.15;1.60;;;;;;;27.33;nan;100556.63;4988201;28;20030;-75
2022/08/11 12:29:19;;;;;;;3.53;1.38;;;;;;;27.68;nan;100492.09;4988305;28;20034;-74
2022/08/11 12:31:46;;;;;;;1.98;1.58;;;;;;;27.82;nan;100491.72;4988458;28;20042;-72
2022/08/11 12:34:14;;;;;;;1.75;1.45;;;;;;;27.92;nan;100504.88;4984509;28;20112;-73
2022/08/11 12:36:50;;;;;;;2.53;1.40;;;;;;;28.06;nan;100501.00;4992880;28;20392;-71
2022/08/11 12:45:26;;;;;;;3.63;1.40;;;;;;;28.19;nan;100503.34;4990062;28;20030;-70
2022/08/11 12:53:27;;;;;;;1.17;1.08;;;;;;;28.28;nan;100480.75;4979060;28;20211;-74
2022/08/11 12:58:41;;;;;;;1.58;1.30;;;;;;;28.41;nan;100495.84;4982655;28;20039;-74
2022/08/11 13:06:37;;;;;;;2.15;1.67;;;;;;;28.43;nan;100491.66;4986109;28;20026;-74
2022/08/11 13:09:04;;;;;;;1.85;1.50;;;;;;;28.45;nan;100494.03;4984288;28;20488;-75
2022/08/11 13:14:16;;;;;;;4.63;1.20;;;;;;;28.53;nan;100519.44;4980146;28;20511;-71
2022/08/11 13:19:30;;;;;;;2.40;1.55;;;;;;;28.58;nan;100489.38;4969801;28;20023;-75
2022/08/11 13:21:57;;;;;;;2.83;1.63;;;;;;;28.62;nan;100406.28;4964587;28;20066;-74
2022/08/11 13:24:23;;;;;;;6.65;1.88;;;;;;;28.73;nan;100450.72;4980184;28;20038;-74
2022/08/11 13:26:50;;;;;;;4.65;1.70;;;;;;;28.68;nan;100469.13;4984535;28;20030;-76
2022/08/11 13:29:27;;;;;;;2.08;1.48;;;;;;;28.71;nan;100473.84;4981342;28;20117;-74
2022/08/11 13:31:59;;;;;;;1.55;1.45;;;;;;;28.49;nan;100453.53;4971347;28;20034;-74
2022/08/11 13:34:27;;;;;;;5.32;1.38;;;;;;;28.22;nan;100461.25;4973205;28;20034;-74
2022/08/11 13:36:59;;;;;;;3.58;1.38;;;;;;;28.23;nan;100475.56;4974026;28;20122;-75
2022/08/11 13:39:29;;;;;;;3.05;1.40;;;;;;;28.31;nan;100442.16;4976509;28;20031;-75
2022/08/11 13:41:58;;;;;;;4.35;1.35;;;;;;;28.38;nan;100488.41;4966652;28;20042;-73
2022/08/11 13:44:26;;;;;;;3.70;1.33;;;;;;;28.47;nan;100424.09;4983114;28;20076;-74
2022/08/11 13:46:56;;;;;;;3.28;1.38;;;;;;;28.58;nan;100435.19;4972450;28;20035;-75
2022/08/11 13:49:24;;;;;;;2.33;1.50;;;;;;;28.62;nan;100430.66;4986392;28;20129;-74
2022/08/11 13:51:51;;;;;;;3.47;1.45;;;;;;;28.71;nan;100435.91;4969611;28;20070;-73
2022/08/11 13:54:21;;;;;;;4.90;1.48;;;;;;;28.54;nan;100440.53;4969900;28;20034;-73
2022/08/11 13:56:51;;;;;;;4.00;1.85;;;;;;;28.37;nan;100452.44;4967652;28;20034;-74
2022/08/11 13:59:24;;;;;;;4.97;1.50;;;;;;;28.35;nan;100438.44;4974540;28;20438;-76
2022/08/11 14:02:02;;;;;;;2.35;1.38;;;;;;;28.28;nan;100454.47;4985404;28;20034;-73
2022/08/11 14:04:52;;;;;;;2.20;1.38;;;;;;;28.23;nan;100373.50;4969324;28;20063;-70
2022/08/11 14:07:23;;;;;;;4.22;1.63;;;;;;;28.14;nan;100459.47;4971104;28;20039;-73
2022/08/11 14:09:54;;;;;;;3.90;1.80;;;;;;;28.08;nan;100447.31;4969857;28;20054;-69
2022/08/11 14:15:18;;;;;;;1.70;1.38;;;;;;;28.15;nan;100469.94;4970905;28;20049;-71
2022/08/11 14:17:48;;;;;;;4.72;1.83;;;;;;;28.04;nan;100403.91;4971466;28;20039;-71
2022/08/11 14:20:17;;;;;;;2.75;1.58;;;;;;;27.99;nan;100456.34;4973090;28;20035;-70
2022/08/11 14:22:45;;;;;;;2.03;1.30;;;;;;;27.95;nan;100378.88;4988921;28;20046;-70
2022/08/11 14:25:14;;;;;;;4.33;1.77;;;;;;;27.94;nan;100396.22;4967304;28;20109;-69
2022/08/11 14:27:40;;;;;;;2.83;1.73;;;;;;;28.08;nan;100434.53;4975109;28;20457;-69
2022/08/11 14:30:53;;;;;;;1.90;1.40;;;;;;;28.17;nan;100358.63;4988868;28;20069;-70
2022/08/11 14:32:53;;;;;;;5.93;1.70;;;;;;;28.29;nan;100422.75;4987246;28;20042;-70
2022/08/11 14:35:19;;;;;;;4.53;2.08;;;;;;;28.19;nan;100445.69;4969401;28;20400;-71
2022/08/11 14:37:45;;;;;;;4.55;1.55;;;;;;;28.26;nan;100448.63;4986683;28;20121;-69
2022/08/11 14:47:03;;;;;;;2.85;1.45;;;;;;;28.22;nan;100431.47;4969221;28;20729;-71
2022/08/11 14:48:29;;;;;;;3.42;1.48;;;;;;;28.29;nan;100410.00;4985419;28;20030;-70
2022/08/11 14:50:55;;;;;;;4.70;1.67;;;;;;;28.20;nan;100412.06;4986841;28;20114;-68
2022/08/11 14:53:22;;;;;;;3.55;1.38;;;;;;;28.25;nan;100411.03;4984436;28;20034;-68
2022/08/11 14:58:33;;;;;;;3.83;1.42;;;;;;;28.25;nan;100446.25;4976150;28;20157;-71
2022/08/11 15:01:00;;;;;;;3.15;1.48;;;;;;;28.27;nan;100420.41;4990130;28;20038;-68
2022/08/11 15:03:29;;;;;;;3.22;1.50;;;;;;;28.30;nan;100398.06;4986415;28;20030;-70
2022/08/11 15:05:56;;;;;;;7.72;1.67;;;;;;;;;;4985354;28;20033;-70
2022/08/11 15:08:53;;;;;;;2.17;1.90;;;;;;;28.39;nan;100403.31;4987052;28;20050;-70
2022/08/11 15:13:58;;;;;;;2.58;1.42;;;;;;;28.27;nan;100422.31;4988277;28;20129;-70
2022/08/11 15:19:08;;;;;;;2.63;2.38;;;;;;;28.20;nan;100376.88;4986251;28;20038;-71
2022/08/11 15:24:18;;;;;;;3.85;1.80;;;;;;;28.17;nan;100385.69;4983565;28;20428;-70
2022/08/11 15:37:58;;;;;;;3.25;1.60;;;;;;;28.08;nan;100380.41;4980079;28;20034;-67
2022/08/11 15:46:21;;;;;;;3.00;1.50;;;;;;;27.98;nan;100407.97;4988583;28;20053;-67
2022/08/11 15:48:55;;;;;;;6.80;1.83;;;;;;;28.01;nan;100374.78;4984684;28;20362;-67
2022/08/11 15:51:42;;;;;;;1.88;1.67;;;;;;;27.96;nan;100399.41;4984487;28;20065;-67
2022/08/11 15:54:14;;;;;;;6.20;2.05;;;;;;;27.93;nan;100373.81;4983406;28;20035;-66
2022/08/11 15:56:48;;;;;;;2.05;1.63;;;;;;;27.95;nan;100365.34;4981508;28;20058;-67
2022/08/11 16:04:49;;;;;;;4.95;2.13;;;;;;;27.90;nan;100385.31;4989328;28;20034;-66
2022/08/11 16:07:17;;;;;;;8.23;1.70;;;;;;;27.87;nan;100353.53;4971913;28;20113;-66
2022/08/11 16:09:54;;;;;;;7.20;1.77;;;;;;;27.88;nan;100374.03;4987547;28;20038;-68
2022/08/11 16:12:25;;;;;;;5.70;1.90;;;;;;;27.83;nan;100359.97;4986622;28;20299;-69
2022/08/11 16:17:50;;;;;;;5.78;2.10;;;;;;;27.77;nan;100360.19;4987177;28;20042;-66
2022/08/11 16:20:20;;;;;;;3.20;1.85;;;;;;;27.75;nan;100394.09;4964047;28;20053;-64
2022/08/11 16:22:49;;;;;;;3.58;2.00;;;;;;;27.71;nan;100418.34;4961362;28;20051;-66
2022/08/11 16:25:23;;;;;;;2.65;1.90;;;;;;;27.70;nan;100353.75;4972457;28;20361;-66
2022/08/11 16:27:52;;;;;;;5.95;1.95;;;;;;;27.65;nan;100384.53;4982174;28;20045;-67
2022/08/11 16:30:18;;;;;;;4.30;1.80;;;;;;;27.63;nan;100358.97;4987288;28;20034;-66
2022/08/11 16:32:50;;;;;;;3.00;1.77;;;;;;;27.64;nan;100395.72;4991628;28;20035;-67
2022/08/11 16:40:51;;;;;;;4.70;2.70;;;;;;;27.58;nan;100377.03;4992409;28;20065;-67
2022/08/11 16:48:54;;;;;;;7.07;3.30;;;;;;;27.51;nan;100384.91;4975118;28;20034;-67
2022/08/11 16:51:20;;;;;;;2.95;1.70;;;;;;;27.43;nan;100383.09;4989394;28;20192;-70
2022/08/11 16:53:47;;;;;;;5.35;2.08;;;;;;;27.33;nan;100362.72;4989768;28;20030;-70
2022/08/11 16:56:18;;;;;;;7.57;2.38;;;;;;;27.43;nan;100391.22;4992099;28;20037;-69
2022/08/11 17:01:58;;;;;;;11.50;7.47;;;;;;;27.38;nan;100374.44;4948841;28;20126;-68
2022/08/11 17:13:08;;;;;;;5.07;3.55;;;;;;;27.26;nan;100386.81;4948329;28;20043;-70
2022/08/11 17:18:42;;;;;;;4.50;2.28;;;;;;;27.22;nan;100382.44;4949906;29;20062;-68
2022/08/11 17:21:28;;;;;;;5.40;2.78;;;;;;;27.15;nan;100394.56;4950578;29;20425;-69
2022/08/11 17:24:04;;;;;;;4.35;2.30;;;;;;;27.05;nan;100370.66;4945298;28;20042;-70
2022/08/11 17:26:55;;;;;;;3.08;2.00;;;;;;;26.90;nan;100374.81;4950148;29;20532;-69
2022/08/11 17:29:29;;;;;;;6.15;2.50;;;;;;;26.93;nan;100381.47;4948490;29;20133;-69
2022/08/11 17:37:32;;;;;;;6.68;3.00;;;;;;;26.81;nan;100401.16;4987129;28;20042;-71
2022/08/11 17:40:01;;;;;;;4.63;2.60;;;;;;;26.65;nan;100392.91;4985200;28;20043;-69
2022/08/11 17:50:49;;;;;;;6.13;2.42;;;;;;;26.23;nan;100344.34;4976074;28;20543;-70
2022/08/11 18:01:35;;;;;;;4.97;1.95;;;;;;;25.94;nan;100395.72;4986918;28;20038;-69
2022/08/11 18:04:04;;;;;;;6.70;2.15;;;;;;;25.82;nan;100394.50;4973283;28;20578;-69
2022/08/11 18:06:32;;;;;;;;;;;;;;;25.66;nan;100399.66;4988399;28;20026;-68
